Time;durP1;ratioP1;P1;durP2;ratioP2;P2;SDS_P1;SDS_P2;PMS_P1;PMS_P2;Temp;Humidity;BMP_temperature;BMP_pressure;BME280_temperature;BME280_humidity;BME280_pressure;Samples;Min_cycle;Max_cycle;Signal;HPM_P1;HPM_P2
2021/01/05 00:00:53;;;;;;;17.25;8.95;;;;;;;2.97;69.20;99343.28;3819810;23;20025;-77
2021/01/05 00:02:24;;;;;;;17.30;8.60;;;;;;;2.91;69.51;99341.09;3817516;23;20443;-77
2021/01/05 00:03:56;;;;;;;14.98;8.07;;;;;;;2.95;69.53;99344.38;3821668;23;20025;-77
2021/01/05 00:05:26;;;;;;;18.50;8.45;;;;;;;2.96;69.48;99340.75;3818818;23;20033;-77
2021/01/05 00:06:57;;;;;;;;;;;;;;;2.82;69.72;99347.06;3822491;23;20017;-77
2021/01/05 00:08:29;;;;;;;20.80;9.73;;;;;;;2.84;69.85;99346.94;3818026;23;19924;-76
2021/01/05 00:09:59;;;;;;;19.80;10.85;;;;;;;2.91;69.62;99348.16;3822146;23;20025;-78
2021/01/05 00:11:30;;;;;;;;;;;;;;;2.78;70.13;99342.94;3820017;23;20021;-76
2021/01/05 00:13:02;;;;;;;16.90;8.73;;;;;;;2.91;69.88;99341.09;3829629;23;20408;-74
2021/01/05 00:14:34;;;;;;;17.35;7.65;;;;;;;2.94;69.73;99346.13;3830890;23;20036;-75
2021/01/05 00:16:11;;;;;;;18.95;9.95;;;;;;;2.89;69.80;99335.09;3833278;23;20026;-77
2021/01/05 00:17:43;;;;;;;21.05;11.25;;;;;;;2.92;69.93;99337.50;3831365;23;20036;-77
2021/01/05 00:19:23;;;;;;;18.23;9.30;;;;;;;2.85;70.16;99336.25;3832220;23;20044;-77
2021/01/05 00:20:57;;;;;;;17.13;8.80;;;;;;;2.92;70.27;99340.16;3830948;23;20045;-74
2021/01/05 00:22:30;;;;;;;18.27;9.60;;;;;;;2.89;70.45;99339.50;3831698;23;20013;-75
2021/01/05 00:24:01;;;;;;;20.60;11.07;;;;;;;2.85;70.76;99343.34;3824527;23;20025;-78
2021/01/05 00:25:33;;;;;;;19.83;11.30;;;;;;;2.83;70.81;99342.63;3824572;23;20498;-78
2021/01/05 00:27:05;;;;;;;21.10;11.13;;;;;;;2.73;71.28;99345.09;3821634;23;20036;-79
2021/01/05 00:28:38;;;;;;;20.45;10.85;;;;;;;2.75;71.18;99344.03;3823383;23;20025;-75
2021/01/05 00:30:13;;;;;;;19.67;11.02;;;;;;;2.72;71.45;99338.97;3821590;23;20080;-77
2021/01/05 00:31:45;;;;;;;21.50;10.43;;;;;;;2.76;71.68;99344.84;3822096;23;20033;-78
2021/01/05 00:33:19;;;;;;;21.33;10.85;;;;;;;2.76;71.56;99340.44;3816990;23;20029;-77
2021/01/05 00:34:50;;;;;;;20.17;11.80;;;;;;;2.65;71.98;99341.19;3822566;23;20026;-77
2021/01/05 00:36:21;;;;;;;21.25;11.73;;;;;;;2.62;72.33;99338.81;3818923;23;20022;-78
2021/01/05 00:37:54;;;;;;;17.23;8.82;;;;;;;2.74;71.90;99337.06;3821042;23;20026;-77
2021/01/05 00:39:26;;;;;;;17.85;8.35;;;;;;;2.83;71.93;99345.25;3818026;23;20048;-78
2021/01/05 00:40:57;;;;;;;18.90;9.38;;;;;;;2.78;71.82;99340.31;3820101;23;20534;-77
2021/01/05 00:42:28;;;;;;;19.55;10.25;;;;;;;2.70;72.17;99340.03;3817635;23;20027;-77
2021/01/05 00:43:59;;;;;;;;;;;;;;;2.65;72.74;99348.28;3819315;23;20030;-77
2021/01/05 00:45:33;;;;;;;16.75;7.80;;;;;;;2.81;72.08;99351.47;3818301;23;19951;-76
2021/01/05 00:47:05;;;;;;;15.57;8.68;;;;;;;2.87;71.89;99342.28;3819279;23;20021;-77
2021/01/05 00:48:36;;;;;;;14.68;7.63;;;;;;;2.89;71.84;99340.38;3817965;23;20025;-77
2021/01/05 00:50:08;;;;;;;19.42;10.50;;;;;;;2.79;72.00;99342.81;3820367;23;20032;-76
2021/01/05 00:51:40;;;;;;;21.98;12.02;;;;;;;2.75;72.14;99344.03;3815915;23;20028;-76
2021/01/05 00:53:11;;;;;;;16.90;10.30;;;;;;;2.70;72.58;99348.78;3821516;23;20044;-77
2021/01/05 00:54:42;;;;;;;18.85;9.68;;;;;;;2.75;72.57;99348.44;3818552;23;20025;-77
2021/01/05 00:56:13;;;;;;;15.10;7.35;;;;;;;2.85;72.34;99341.53;3819253;23;20049;-75
2021/01/05 00:57:45;;;;;;;17.60;8.82;;;;;;;2.86;72.31;99345.88;3815892;23;20021;-77
2021/01/05 00:59:16;;;;;;;16.63;9.40;;;;;;;2.88;72.46;99349.25;3828853;23;20009;-77
2021/01/05 01:00:48;;;;;;;16.20;9.38;;;;;;;2.93;72.18;99347.09;3832230;23;20033;-77
2021/01/05 01:02:20;;;;;;;19.33;8.73;;;;;;;2.93;72.32;99348.91;3824553;23;20403;-76
2021/01/05 01:03:51;;;;;;;18.48;9.27;;;;;;;2.92;72.32;99349.84;3820670;23;20033;-76
2021/01/05 01:05:22;;;;;;;17.35;9.68;;;;;;;2.90;72.54;99357.91;3817065;23;20049;-77
2021/01/05 01:06:54;;;;;;;18.65;10.65;;;;;;;2.95;72.39;99353.09;3819462;23;20028;-75
2021/01/05 01:08:25;;;;;;;18.67;9.85;;;;;;;2.91;72.54;99348.16;3815220;23;20076;-75
2021/01/05 01:09:57;;;;;;;19.10;10.50;;;;;;;2.87;72.71;99355.47;3817610;23;20049;-77
2021/01/05 01:11:28;;;;;;;20.38;11.70;;;;;;;2.77;73.08;99354.47;3816052;23;20029;-77
2021/01/05 01:13:00;;;;;;;22.40;10.88;;;;;;;2.77;73.25;99354.47;3817718;23;20029;-77
2021/01/05 01:14:33;;;;;;;22.98;11.38;;;;;;;2.78;73.30;99354.38;3814515;23;20026;-76
2021/01/05 01:16:06;;;;;;;18.88;9.80;;;;;;;2.84;73.18;99347.78;3820331;23;20021;-76
2021/01/05 01:17:37;;;;;;;16.73;8.90;;;;;;;2.88;73.04;99353.69;3831312;23;20026;-75
2021/01/05 01:19:16;;;;;;;;;;;;;;;2.80;73.56;99356.88;3844135;23;20032;-78
2021/01/05 01:20:47;;;;;;;15.93;8.52;;;;;;;2.87;73.13;99358.13;3827825;23;19916;-77
2021/01/05 01:22:20;;;;;;;17.17;8.55;;;;;;;2.89;72.92;99356.22;3817400;23;20135;-74
2021/01/05 01:23:51;;;;;;;16.27;8.65;;;;;;;2.99;72.88;99355.53;3816561;23;20351;-77
2021/01/05 01:25:23;;;;;;;19.30;9.90;;;;;;;2.97;72.89;99363.59;3817634;23;20029;-76
2021/01/05 01:26:54;;;;;;;16.85;9.98;;;;;;;2.91;73.07;99359.59;3816008;23;20049;-76
2021/01/05 01:28:26;;;;;;;16.40;8.50;;;;;;;2.91;73.33;99356.94;3817700;23;20081;-76
2021/01/05 01:30:05;;;;;;;18.63;10.30;;;;;;;2.90;73.06;99355.25;3820189;23;20021;-76
2021/01/05 01:31:37;;;;;;;18.58;10.35;;;;;;;2.90;73.27;99357.03;3832772;23;20104;-75
2021/01/05 01:33:08;;;;;;;16.08;8.48;;;;;;;2.99;73.18;99347.63;3818904;23;20455;-78
2021/01/05 01:34:40;;;;;;;16.88;8.60;;;;;;;3.00;73.08;99349.31;3818804;23;20080;-77
2021/01/05 01:36:11;;;;;;;15.73;9.02;;;;;;;3.05;72.91;99347.16;3815140;23;20032;-77
2021/01/05 01:37:42;;;;;;;15.43;8.27;;;;;;;3.08;72.97;99345.13;3818504;23;20026;-76
2021/01/05 01:39:14;;;;;;;16.33;7.90;;;;;;;3.07;73.04;99342.59;3815326;23;20025;-76
2021/01/05 01:40:46;;;;;;;14.68;8.05;;;;;;;3.05;73.15;99340.09;3818307;23;20451;-76
2021/01/05 01:42:19;;;;;;;16.25;8.30;;;;;;;3.07;73.11;99345.25;3815392;23;20025;-76
2021/01/05 01:43:50;;;;;;;20.52;10.43;;;;;;;3.02;73.10;99344.75;3817895;23;20060;-76
2021/01/05 01:45:24;;;;;;;16.30;10.02;;;;;;;3.03;73.20;99341.13;3816144;23;20025;-76
2021/01/05 01:46:59;;;;;;;16.65;9.43;;;;;;;2.99;73.39;99350.25;3816759;23;20021;-76
2021/01/05 01:48:30;;;;;;;15.88;8.52;;;;;;;2.99;73.32;99347.63;3815759;23;20021;-76
2021/01/05 01:50:09;;;;;;;19.40;10.45;;;;;;;2.90;73.35;99347.34;3818453;23;20541;-75
2021/01/05 01:51:42;;;;;;;20.75;10.68;;;;;;;2.86;73.70;99353.78;3812070;23;20064;-76
2021/01/05 01:53:28;;;;;;;17.70;8.43;;;;;;;2.87;73.76;99349.38;3817745;23;20328;-77
2021/01/05 01:55:38;;;;;;;14.63;7.57;;;;;;;2.91;73.72;99349.03;3816812;23;20021;-77
2021/01/05 01:57:36;;;;;;;17.17;9.68;;;;;;;2.79;73.89;99345.47;3816705;23;20022;-77
2021/01/05 01:59:28;;;;;;;18.60;10.07;;;;;;;2.77;73.97;99344.75;3819506;23;20072;-76
2021/01/05 02:01:16;;;;;;;12.38;7.38;;;;;;;2.83;73.89;99348.75;3816856;23;20069;-77
2021/01/05 02:03:01;;;;;;;13.68;7.00;;;;;;;2.89;73.92;99352.72;3817453;23;20021;-77
2021/01/05 02:05:02;;;;;;;15.40;8.68;;;;;;;2.88;73.75;99348.41;3826610;23;20052;-76
2021/01/05 02:06:48;;;;;;;15.20;9.27;;;;;;;2.78;74.02;99354.38;3829124;23;20017;-73
2021/01/05 02:08:35;;;;;;;17.60;10.07;;;;;;;2.75;73.91;99351.94;3816950;23;20025;-76
2021/01/05 02:10:26;;;;;;;20.77;11.57;;;;;;;2.72;74.36;99354.78;3825039;23;20081;-77
2021/01/05 02:12:06;;;;;;;20.20;12.50;;;;;;;2.64;74.41;99351.88;3827033;23;20022;-77
2021/01/05 02:14:05;;;;;;;16.08;9.00;;;;;;;2.65;74.33;99350.91;3832728;23;20025;-76
2021/01/05 02:15:48;;;;;;;13.95;7.95;;;;;;;2.74;74.37;99349.44;3826324;23;20037;-77
2021/01/05 02:17:57;;;;;;;14.23;8.98;;;;;;;2.78;74.04;99353.50;3826544;23;20026;-78
2021/01/05 02:19:37;;;;;;;19.85;10.00;;;;;;;2.76;74.00;99356.28;3819958;23;20033;-76
2021/01/05 02:21:17;;;;;;;17.75;9.32;;;;;;;2.77;74.07;99354.47;3817054;23;20025;-75
2021/01/05 02:22:56;;;;;;;18.67;10.63;;;;;;;2.68;74.41;99352.50;3819296;23;20066;-75
2021/01/05 02:24:42;;;;;;;14.32;7.65;;;;;;;2.75;74.51;99356.34;3816350;23;20049;-76
2021/01/05 02:26:20;;;;;;;15.18;8.93;;;;;;;2.82;74.10;99352.34;3821761;23;20636;-76
2021/01/05 02:27:58;;;;;;;14.77;7.93;;;;;;;2.83;74.10;99353.16;3831774;23;20017;-76
2021/01/05 02:29:35;;;;;;;14.90;8.18;;;;;;;2.84;74.14;99353.06;3830183;23;20025;-76
2021/01/05 02:31:19;;;;;;;15.75;8.65;;;;;;;2.84;74.06;99355.69;3834142;23;20033;-74
2021/01/05 02:33:00;;;;;;;15.43;8.65;;;;;;;2.75;74.43;99361.63;3831880;23;20018;-75
2021/01/05 02:34:38;;;;;;;;;;;;;;;2.80;74.53;99348.97;3834303;23;20025;-77
2021/01/05 02:36:32;;;;;;;13.20;7.50;;;;;;;2.92;73.68;99350.72;3828159;23;19920;-77
2021/01/05 02:38:29;;;;;;;14.15;8.05;;;;;;;2.93;73.63;99351.53;3805300;23;20022;-74
2021/01/05 02:40:24;;;;;;;15.48;8.32;;;;;;;2.88;73.77;99353.69;3830944;23;20009;-77
2021/01/05 02:42:12;;;;;;;14.90;7.60;;;;;;;2.92;73.76;99345.44;3829286;23;20021;-76
2021/01/05 02:44:23;;;;;;;14.75;8.48;;;;;;;2.77;74.12;99341.25;3833277;23;20025;-76
2021/01/05 02:46:09;;;;;;;13.70;7.25;;;;;;;2.78;74.26;99343.81;3794246;23;20022;-76
2021/01/05 02:48:17;;;;;;;16.45;8.50;;;;;;;2.78;74.21;99341.16;3794171;23;20005;-77
2021/01/05 02:50:01;;;;;;;14.40;7.72;;;;;;;2.89;73.89;99345.66;3748955;23;20081;-75
2021/01/05 02:52:05;;;;;;;15.13;8.75;;;;;;;2.85;73.95;99333.63;3814434;23;20053;-76
2021/01/05 02:54:11;;;;;;;14.93;8.80;;;;;;;2.80;74.11;99341.88;3831210;23;20022;-75
2021/01/05 02:56:15;;;;;;;13.88;7.03;;;;;;;2.90;74.10;99331.50;3815608;23;20029;-77
2021/01/05 02:58:00;;;;;;;14.02;6.72;;;;;;;3.02;73.61;99342.13;3831272;23;20010;-77
2021/01/05 03:00:08;;;;;;;11.35;5.50;;;;;;;3.07;73.46;99332.03;3831180;23;20020;-76
2021/01/05 03:02:18;;;;;;;15.18;8.38;;;;;;;2.87;73.65;99331.72;3834057;23;20025;-78
2021/01/05 03:03:57;;;;;;;18.02;9.00;;;;;;;2.83;74.05;99330.28;3829895;23;20025;-76
2021/01/05 03:05:35;;;;;;;14.82;8.43;;;;;;;2.80;74.12;99335.75;3829973;23;20018;-75
2021/01/05 03:07:13;;;;;;;16.88;9.25;;;;;;;2.84;74.18;99331.94;3833238;23;20017;-78
2021/01/05 03:08:58;;;;;;;20.08;10.35;;;;;;;2.77;74.35;99328.91;3828621;23;20076;-77
2021/01/05 03:10:48;;;;;;;17.45;8.95;;;;;;;2.72;74.48;99324.94;3833373;23;20447;-75
2021/01/05 03:12:54;;;;;;;12.02;6.78;;;;;;;2.85;74.15;99323.06;3832471;23;20028;-76
2021/01/05 03:14:40;;;;;;;12.30;6.00;;;;;;;2.96;73.99;99327.56;3829338;23;20112;-76
2021/01/05 03:16:23;;;;;;;15.23;8.45;;;;;;;2.97;73.81;99326.63;3832424;23;20084;-78
2021/01/05 03:17:59;;;;;;;18.48;9.85;;;;;;;2.87;74.04;99329.06;3825116;23;20036;-77
2021/01/05 03:19:39;;;;;;;15.35;8.60;;;;;;;2.76;74.33;99329.00;3821605;23;20477;-78
2021/01/05 03:21:20;;;;;;;14.63;7.82;;;;;;;2.78;74.38;99330.59;3831267;23;20018;-75
2021/01/05 03:22:56;;;;;;;16.98;9.05;;;;;;;2.80;74.15;99335.75;3833467;23;20036;-78
2021/01/05 03:24:29;;;;;;;16.23;8.95;;;;;;;2.71;74.33;99337.25;3830931;23;20049;-77
2021/01/05 03:26:06;;;;;;;15.40;8.75;;;;;;;2.72;74.69;99330.22;3833222;23;20026;-78
2021/01/05 03:27:41;;;;;;;15.48;8.90;;;;;;;2.69;74.50;99333.91;3831034;23;20026;-78
2021/01/05 03:29:13;;;;;;;15.38;7.88;;;;;;;2.77;74.66;99342.13;3832316;23;20077;-75
2021/01/05 03:30:48;;;;;;;12.98;7.25;;;;;;;2.80;74.30;99331.31;3829742;23;20021;-76
2021/01/05 03:32:19;;;;;;;14.73;8.40;;;;;;;2.87;74.40;99331.72;3830096;23;20029;-76
2021/01/05 03:33:57;;;;;;;18.52;9.00;;;;;;;2.84;74.23;99337.22;3832675;23;20041;-77
2021/01/05 03:35:27;;;;;;;15.48;9.10;;;;;;;2.74;74.40;99336.22;3828899;23;20025;-76
2021/01/05 03:36:58;;;;;;;;;;;;;;;2.60;74.61;99330.16;3832076;23;20040;-77
2021/01/05 03:38:29;;;;;;;15.85;8.13;;;;;;;2.71;74.57;99339.09;3828942;23;19927;-76
2021/01/05 03:40:04;;;;;;;;;;;;;;;2.59;74.72;99332.91;3832424;23;20388;-76
2021/01/05 03:41:37;;;;;;;16.23;7.78;;;;;;;2.64;74.67;99336.91;3827192;23;19916;-75
2021/01/05 03:43:09;;;;;;;16.45;8.85;;;;;;;2.65;74.48;99330.63;3831488;23;20040;-74
2021/01/05 03:44:40;;;;;;;14.45;7.50;;;;;;;2.69;74.71;99333.06;3829579;23;20022;-74
2021/01/05 03:46:12;;;;;;;;;;;;;;;2.55;74.78;99340.16;3832901;23;20053;-75
2021/01/05 03:47:43;;;;;;;15.57;7.82;;;;;;;2.61;74.70;99331.84;3829451;23;19924;-78
2021/01/05 03:49:14;;;;;;;14.38;7.97;;;;;;;2.72;74.48;99328.41;3827224;23;20033;-75
2021/01/05 03:50:47;;;;;;;11.65;5.53;;;;;;;2.78;74.57;99330.59;3819689;23;20033;-77
2021/01/05 03:52:17;;;;;;;10.70;5.75;;;;;;;2.87;74.22;99326.44;3821093;23;20014;-77
2021/01/05 03:53:49;;;;;;;;;;;;;;;2.83;74.10;99335.56;3817329;23;20467;-75
2021/01/05 03:55:19;;;;;;;16.05;8.50;;;;;;;2.84;74.25;99324.00;3820077;23;19917;-77
2021/01/05 03:56:51;;;;;;;13.30;7.80;;;;;;;2.79;74.37;99329.63;3816974;23;20080;-76
2021/01/05 03:58:22;;;;;;;15.52;8.35;;;;;;;2.76;74.42;99331.66;3819717;23;20025;-77
2021/01/05 03:59:54;;;;;;;12.73;7.47;;;;;;;2.75;74.60;99324.69;3816287;23;20022;-76
2021/01/05 04:01:26;;;;;;;10.70;6.63;;;;;;;2.84;74.41;99334.56;3820647;23;20029;-76
2021/01/05 04:03:02;;;;;;;14.88;8.35;;;;;;;2.79;74.23;99331.44;3817325;23;20028;-77
2021/01/05 04:04:34;;;;;;;16.83;9.02;;;;;;;2.70;74.56;99332.94;3833441;23;20037;-77
2021/01/05 04:06:08;;;;;;;16.05;8.85;;;;;;;2.63;74.88;99329.94;3830373;23;20025;-76
2021/01/05 04:07:41;;;;;;;14.40;8.23;;;;;;;2.68;75.07;99323.44;3832975;23;20029;-75
2021/01/05 04:09:13;;;;;;;15.52;8.50;;;;;;;2.73;75.09;99321.34;3830472;23;20022;-77
2021/01/05 04:10:44;;;;;;;15.02;8.27;;;;;;;2.72;75.15;99332.84;3827412;23;20025;-77
2021/01/05 04:12:16;;;;;;;12.82;7.25;;;;;;;2.71;74.69;99326.72;3817741;23;20052;-77
2021/01/05 04:13:47;;;;;;;15.93;8.70;;;;;;;2.78;74.61;99322.69;3820249;23;20073;-77
2021/01/05 04:15:20;;;;;;;16.90;8.25;;;;;;;2.78;74.49;99321.81;3818922;23;20028;-76
2021/01/05 04:16:53;;;;;;;12.40;7.13;;;;;;;2.79;74.52;99323.53;3818917;23;20049;-77
2021/01/05 04:18:24;;;;;;;14.68;8.32;;;;;;;2.80;74.60;99325.22;3816777;23;20459;-77
2021/01/05 04:19:55;;;;;;;14.68;8.75;;;;;;;2.81;74.35;99322.44;3818212;23;20033;-76
2021/01/05 04:21:27;;;;;;;;;;;;;;;2.67;74.78;99319.13;3817207;23;20057;-76
2021/01/05 04:22:59;;;;;;;16.08;7.57;;;;;;;2.71;74.62;99312.69;3818747;23;19920;-77
2021/01/05 04:24:30;;;;;;;12.50;7.28;;;;;;;2.80;74.59;99309.38;3816414;23;20049;-76
2021/01/05 04:26:01;;;;;;;14.02;8.20;;;;;;;2.85;74.20;99323.06;3819593;23;20075;-78
2021/01/05 04:27:33;;;;;;;13.48;7.30;;;;;;;2.77;74.44;99328.06;3815422;23;20048;-77
2021/01/05 04:29:04;;;;;;;14.68;8.93;;;;;;;2.70;74.79;99334.75;3819165;23;20029;-76
2021/01/05 04:30:39;;;;;;;16.73;10.40;;;;;;;2.69;74.58;99333.06;3816206;23;20053;-77
2021/01/05 04:32:12;;;;;;;16.08;8.57;;;;;;;2.71;74.80;99333.81;3819531;23;20025;-76
2021/01/05 04:33:43;;;;;;;12.98;7.35;;;;;;;2.73;74.65;99329.25;3816673;23;20033;-76
2021/01/05 04:35:16;;;;;;;14.93;8.13;;;;;;;2.81;74.42;99329.53;3819284;23;20049;-76
2021/01/05 04:36:48;;;;;;;11.73;6.82;;;;;;;2.88;74.29;99338.69;3816432;23;20525;-75
2021/01/05 04:38:18;;;;;;;14.60;7.05;;;;;;;2.91;74.26;99332.31;3814454;23;20351;-76
2021/01/05 04:39:49;;;;;;;;;;;;;;;2.86;74.15;99334.47;3818808;23;20125;-76
2021/01/05 04:41:21;;;;;;;15.38;6.85;;;;;;;2.90;74.18;99331.50;3814994;23;19944;-77
2021/01/05 04:43:08;;;;;;;12.55;6.40;;;;;;;2.97;73.90;99331.91;3818016;23;20045;-76
2021/01/05 04:44:48;;;;;;;14.82;7.78;;;;;;;2.99;73.83;99334.41;3816691;23;20025;-78
2021/01/05 04:46:46;;;;;;;14.63;8.25;;;;;;;2.86;74.10;99337.13;3819639;23;20029;-79
2021/01/05 04:48:32;;;;;;;13.80;7.32;;;;;;;2.76;74.53;99343.06;3816148;23;20026;-79
2021/01/05 04:50:12;;;;;;;13.07;7.03;;;;;;;2.85;74.38;99338.06;3827772;23;20021;-78
2021/01/05 04:51:46;;;;;;;13.83;8.50;;;;;;;2.92;74.05;99334.88;3825529;23;20028;-78
2021/01/05 04:53:23;;;;;;;14.88;8.30;;;;;;;2.83;74.22;99340.84;3834779;23;20257;-78
2021/01/05 04:54:59;;;;;;;15.02;8.15;;;;;;;2.80;74.34;99336.59;3828464;23;20021;-75
2021/01/05 04:56:44;;;;;;;14.23;7.60;;;;;;;2.85;74.26;99343.34;3828578;23;20021;-75
2021/01/05 04:58:24;;;;;;;13.32;7.38;;;;;;;2.88;74.12;99341.31;3830958;23;20032;-78
2021/01/05 05:00:03;;;;;;;12.98;6.82;;;;;;;2.89;74.22;99336.88;3828987;23;20031;-79
2021/01/05 05:01:35;;;;;;;12.35;6.05;;;;;;;2.96;74.10;99332.84;3833350;23;20025;-75
2021/01/05 05:03:17;;;;;;;15.05;8.00;;;;;;;2.87;74.13;99338.81;3829000;23;20022;-78
2021/01/05 05:04:58;;;;;;;14.93;7.85;;;;;;;2.85;74.12;99341.53;3832633;23;20025;-78
2021/01/05 05:06:36;;;;;;;10.27;5.88;;;;;;;2.87;74.28;99342.28;3828015;23;20021;-76
2021/01/05 05:08:27;;;;;;;11.63;7.10;;;;;;;2.92;74.03;99344.56;3831354;23;20021;-77
2021/01/05 05:10:06;;;;;;;13.88;8.35;;;;;;;2.93;73.95;99341.81;3828133;23;20114;-75
2021/01/05 05:11:53;;;;;;;14.00;7.90;;;;;;;2.78;74.33;99340.31;3822185;23;20026;-79
2021/01/05 05:13:33;;;;;;;13.68;7.63;;;;;;;2.73;74.54;99345.94;3817994;23;20021;-79
2021/01/05 05:15:19;;;;;;;12.40;6.75;;;;;;;2.85;74.37;99353.91;3818256;23;20041;-78
2021/01/05 05:17:13;;;;;;;14.77;7.85;;;;;;;2.75;74.24;99353.72;3824913;23;20025;-78
2021/01/05 05:19:02;;;;;;;12.73;6.38;;;;;;;2.87;74.29;99341.44;3817135;23;20462;-78
2021/01/05 05:20:55;;;;;;;12.57;6.50;;;;;;;2.93;73.84;99351.53;3816253;23;20022;-77
2021/01/05 05:22:39;;;;;;;14.18;7.68;;;;;;;2.83;74.12;99348.75;3819628;23;20355;-78
2021/01/05 05:24:26;;;;;;;16.17;8.50;;;;;;;2.83;74.46;99351.41;3815726;23;20022;-79
2021/01/05 05:26:05;;;;;;;12.15;6.60;;;;;;;2.91;74.17;99353.44;3818630;23;20148;-78
2021/01/05 05:27:44;;;;;;;13.15;7.78;;;;;;;2.92;73.90;99356.00;3814453;23;20356;-79
2021/01/05 05:29:30;;;;;;;14.90;7.75;;;;;;;2.84;74.01;99355.69;3819169;23;20065;-79
2021/01/05 05:31:03;;;;;;;12.07;6.93;;;;;;;2.90;74.21;99363.19;3817289;23;20018;-78
2021/01/05 05:32:39;;;;;;;13.90;7.75;;;;;;;2.92;74.08;99352.50;3816554;23;20028;-78
2021/01/05 05:34:21;;;;;;;13.63;7.15;;;;;;;2.97;73.96;99353.03;3818504;23;20032;-78
2021/01/05 05:36:11;;;;;;;13.02;7.13;;;;;;;2.94;73.81;99354.06;3817469;23;20021;-79
2021/01/05 05:37:52;;;;;;;12.73;7.38;;;;;;;2.99;73.71;99347.63;3818326;23;20017;-78
2021/01/05 05:39:41;;;;;;;14.40;6.93;;;;;;;2.95;73.84;99361.03;3817143;23;20033;-78
2021/01/05 05:41:27;;;;;;;14.07;7.45;;;;;;;2.97;73.76;99364.41;3818355;23;20040;-77
2021/01/05 05:43:13;;;;;;;12.88;7.43;;;;;;;2.94;73.97;99358.50;3816648;23;20390;-79
2021/01/05 05:44:49;;;;;;;13.77;7.10;;;;;;;2.95;73.92;99361.03;3816554;23;20076;-78
2021/01/05 05:46:24;;;;;;;12.15;7.43;;;;;;;2.94;74.12;99356.69;3819762;23;20451;-78
2021/01/05 05:48:01;;;;;;;14.32;7.72;;;;;;;2.94;73.95;99369.06;3815744;23;20025;-78
2021/01/05 05:49:43;;;;;;;13.20;6.78;;;;;;;3.01;73.87;99370.31;3819004;23;20025;-77
2021/01/05 05:51:21;;;;;;;12.50;6.20;;;;;;;3.02;73.50;99365.88;3813664;23;20025;-79
2021/01/05 05:52:58;;;;;;;12.18;5.53;;;;;;;3.05;73.55;99368.28;3818473;23;20061;-78
2021/01/05 05:54:34;;;;;;;11.23;5.75;;;;;;;3.10;73.48;99369.63;3816235;23;20025;-78
2021/01/05 05:56:08;;;;;;;12.95;7.03;;;;;;;3.06;73.62;99375.25;3818469;23;20025;-77
2021/01/05 05:57:44;;;;;;;11.60;6.85;;;;;;;3.04;73.76;99377.16;3816143;23;20413;-78
2021/01/05 05:59:17;;;;;;;11.65;7.35;;;;;;;3.04;73.69;99377.16;3816729;23;20021;-78
2021/01/05 06:00:52;;;;;;;14.45;7.85;;;;;;;3.00;73.92;99373.91;3816394;23;20026;-76
2021/01/05 06:02:23;;;;;;;14.02;8.07;;;;;;;2.89;74.04;99377.34;3814129;23;20029;-77
2021/01/05 06:03:58;;;;;;;16.30;9.50;;;;;;;2.81;74.10;99377.88;3817311;23;20021;-78
2021/01/05 06:05:32;;;;;;;14.48;7.53;;;;;;;2.86;74.37;99380.19;3815553;23;20040;-77
2021/01/05 06:07:04;;;;;;;14.30;8.48;;;;;;;2.83;74.40;99385.72;3818992;23;20040;-77
2021/01/05 06:08:36;;;;;;;15.98;7.05;;;;;;;2.86;74.25;99382.81;3814884;23;20022;-79
2021/01/05 06:10:07;;;;;;;12.13;6.32;;;;;;;2.99;74.03;99381.94;3817688;23;20061;-77
2021/01/05 06:11:38;;;;;;;12.25;6.78;;;;;;;3.04;73.85;99379.78;3816361;23;20036;-78
2021/01/05 06:13:10;;;;;;;15.18;8.55;;;;;;;2.94;74.13;99383.09;3817053;23;20034;-81
2021/01/05 06:14:42;;;;;;;13.50;7.88;;;;;;;2.92;74.17;99376.25;3816275;23;20025;-77
2021/01/05 06:16:13;;;;;;;15.90;9.00;;;;;;;2.85;74.17;99391.69;3817724;23;20032;-79
2021/01/05 06:17:44;;;;;;;12.30;7.30;;;;;;;2.86;74.42;99382.81;3815955;23;20060;-78
2021/01/05 06:19:16;;;;;;;16.27;9.13;;;;;;;2.86;74.42;99388.09;3817400;23;20029;-78
2021/01/05 06:20:47;;;;;;;15.73;8.25;;;;;;;2.80;74.45;99388.56;3815827;23;20101;-78
2021/01/05 06:22:19;;;;;;;13.70;8.05;;;;;;;2.88;74.34;99388.03;3818096;23;20025;-79
2021/01/05 06:23:50;;;;;;;12.52;7.13;;;;;;;2.95;74.24;99383.97;3815043;23;20029;-77
2021/01/05 06:25:22;;;;;;;13.57;7.90;;;;;;;2.94;74.07;99391.03;3819229;23;20033;-79
2021/01/05 06:26:53;;;;;;;15.15;9.40;;;;;;;2.89;74.33;99387.91;3815085;23;20591;-77
2021/01/05 06:28:24;;;;;;;14.07;8.25;;;;;;;2.84;74.52;99392.66;3817802;23;20033;-80
2021/01/05 06:29:55;;;;;;;12.90;6.90;;;;;;;2.92;74.39;99387.69;3815220;23;20080;-79
2021/01/05 06:31:26;;;;;;;;;;;;;;;2.83;74.46;99396.28;3818942;23;20631;-79
2021/01/05 06:32:58;;;;;;;12.98;8.00;;;;;;;2.90;74.40;99394.88;3815869;23;20304;-80
2021/01/05 06:34:29;;;;;;;15.05;8.15;;;;;;;2.93;74.18;99396.44;3817102;23;20486;-78
2021/01/05 06:36:00;;;;;;;14.00;7.28;;;;;;;2.99;74.25;99392.50;3816131;23;20069;-77
2021/01/05 06:37:33;;;;;;;13.57;7.63;;;;;;;2.96;73.99;99398.84;3817856;23;20017;-79
2021/01/05 06:39:05;;;;;;;12.30;6.57;;;;;;;2.99;74.34;99400.44;3815764;23;20017;-78
2021/01/05 06:40:36;;;;;;;13.65;7.25;;;;;;;3.04;73.96;99400.91;3817531;23;20124;-78
2021/01/05 06:42:07;;;;;;;16.77;7.75;;;;;;;2.95;74.20;99398.00;3815514;23;20033;-77
2021/01/05 06:43:38;;;;;;;;;;;;;;;2.91;74.23;99400.97;3818016;23;20451;-75
2021/01/05 06:45:14;;;;;;;13.27;6.72;;;;;;;2.93;74.09;99404.34;3815878;23;20333;-78
2021/01/05 06:46:47;;;;;;;15.52;7.65;;;;;;;2.99;74.22;99403.06;3818615;23;20029;-79
2021/01/05 06:48:19;;;;;;;12.70;7.22;;;;;;;3.00;74.16;99400.31;3813430;23;20021;-78
2021/01/05 06:49:50;;;;;;;13.65;7.10;;;;;;;3.02;73.97;99402.84;3818292;23;20025;-78
2021/01/05 06:51:21;;;;;;;13.38;6.43;;;;;;;3.03;74.06;99400.09;3812020;23;20101;-78
2021/01/05 06:52:55;;;;;;;14.10;6.50;;;;;;;3.07;74.06;99398.06;3817227;23;20026;-76
2021/01/05 06:54:26;;;;;;;12.43;6.72;;;;;;;3.06;73.89;99399.03;3815226;23;20025;-77
2021/01/05 06:55:57;;;;;;;12.35;7.05;;;;;;;3.09;73.97;99406.72;3818295;23;20026;-79
2021/01/05 06:57:28;;;;;;;12.65;7.13;;;;;;;3.06;73.77;99407.81;3815035;23;20025;-78
2021/01/05 06:58:59;;;;;;;;;;;;;;;3.01;73.89;99406.44;3818044;23;20048;-78
2021/01/05 07:00:31;;;;;;;12.77;6.32;;;;;;;3.09;73.86;99417.28;3817018;23;19921;-78
2021/01/05 07:02:04;;;;;;;10.70;5.90;;;;;;;3.14;73.69;99411.66;3817659;23;20022;-79
2021/01/05 07:03:36;;;;;;;12.82;6.35;;;;;;;3.16;73.55;99415.88;3816028;23;20065;-77
2021/01/05 07:05:07;;;;;;;12.32;6.25;;;;;;;3.19;73.45;99409.53;3817734;23;20082;-77
2021/01/05 07:06:39;;;;;;;12.85;6.55;;;;;;;3.19;73.43;99417.44;3816552;23;20057;-76
2021/01/05 07:08:11;;;;;;;11.95;6.38;;;;;;;3.19;73.54;99414.81;3818250;23;20025;-77
2021/01/05 07:09:42;;;;;;;10.80;5.28;;;;;;;3.24;73.37;99413.50;3815798;23;20048;-76
2021/01/05 07:11:14;;;;;;;12.10;6.47;;;;;;;3.28;73.31;99420.28;3819004;23;20566;-78
2021/01/05 07:12:46;;;;;;;11.40;6.57;;;;;;;3.27;73.29;99413.28;3815590;23;20032;-78
2021/01/05 07:14:20;;;;;;;14.30;6.75;;;;;;;3.28;73.00;99414.97;3818402;23;20088;-79
2021/01/05 07:15:53;;;;;;;12.57;6.05;;;;;;;3.28;73.24;99412.34;3816053;23;20025;-78
2021/01/05 07:17:24;;;;;;;11.68;6.32;;;;;;;3.23;73.17;99411.81;3816352;23;20029;-76
2021/01/05 07:18:55;;;;;;;12.27;6.15;;;;;;;3.30;73.01;99419.31;3817116;23;20092;-80
2021/01/05 07:20:26;;;;;;;;;;;;;;;3.18;72.97;99424.53;3817614;23;20459;-76
2021/01/05 07:21:57;;;;;;;14.10;7.07;;;;;;;3.14;73.32;99417.78;3819506;23;19924;-78
2021/01/05 07:23:29;;;;;;;;;;;;;;;3.04;73.54;99419.41;3816529;23;20021;-78
2021/01/05 07:25:00;;;;;;;10.45;5.45;;;;;;;3.18;73.46;99426.31;3820468;23;19920;-79
2021/01/05 07:26:32;;;;;;;11.45;6.45;;;;;;;3.19;73.35;99423.59;3816290;23;20025;-79
2021/01/05 07:28:05;;;;;;;13.15;6.72;;;;;;;3.21;72.99;99424.28;3819322;23;20025;-78
2021/01/05 07:29:36;;;;;;;18.05;9.95;;;;;;;3.21;73.06;99428.75;3816680;23;20033;-79
2021/01/05 07:31:07;;;;;;;13.18;6.80;;;;;;;3.18;73.26;99429.81;3819567;23;20026;-79
2021/01/05 07:32:38;;;;;;;11.95;6.10;;;;;;;3.22;73.35;99430.44;3816994;23;22425;-80
2021/01/05 07:34:10;;;;;;;12.57;6.93;;;;;;;3.24;73.34;99433.81;3818710;23;20044;-80
2021/01/05 07:35:41;;;;;;;12.80;7.05;;;;;;;3.25;73.22;99436.34;3819180;23;20029;-80
2021/01/05 07:37:17;;;;;;;16.70;7.32;;;;;;;3.24;73.42;99441.75;3818945;23;20068;-78